createdAt,value
2023-03-07T00:01:01.520Z,72.87
2023-03-07T00:02:03.953Z,72.38
2023-03-07T00:03:06.470Z,72.42
2023-03-07T00:04:08.465Z,72.27
2023-03-07T00:05:10.351Z,71.99
2023-03-07T00:06:12.274Z,71.96
2023-03-07T00:07:14.839Z,72.01
2023-03-07T00:08:16.727Z,71.85
2023-03-07T00:09:18.600Z,71.83
2023-03-07T00:10:20.474Z,71.28
2023-03-07T00:11:22.539Z,71.31
2023-03-07T00:12:24.849Z,70.87
2023-03-07T00:13:28.892Z,70.85
2023-03-07T00:14:30.755Z,70.81
2023-03-07T00:15:32.637Z,70.45
2023-03-07T00:16:34.750Z,70.42
2023-03-07T00:17:37.364Z,70.78
2023-03-07T00:18:39.223Z,71.25
2023-03-07T00:19:44.196Z,71.94
2023-03-07T00:20:46.088Z,72.11
2023-03-07T00:21:48.096Z,71.75
2023-03-07T00:22:50.064Z,71.88
2023-03-07T00:23:52.798Z,71.68
2023-03-07T00:24:54.570Z,71.42
2023-03-07T00:26:07.198Z,71.52
2023-03-07T00:27:09.211Z,71.41
2023-03-07T00:28:11.093Z,71.62
2023-03-07T00:29:13.055Z,71.38
2023-03-07T00:30:15.098Z,71.28
2023-03-07T00:31:17.730Z,71.75
2023-03-07T00:32:19.643Z,71.73
2023-03-07T00:33:22.956Z,71.71
2023-03-07T00:34:24.887Z,72.06
2023-03-07T00:35:26.827Z,72.16
2023-03-07T00:36:28.696Z,71.84
2023-03-07T00:37:31.204Z,71.80
2023-03-07T00:38:33.527Z,72.35
2023-03-07T00:39:38.305Z,72.03
2023-03-07T00:40:40.126Z,71.88
2023-03-07T00:41:41.984Z,71.70
2023-03-07T00:42:43.828Z,71.95
2023-03-07T00:43:47.363Z,71.94
2023-03-07T00:44:49.306Z,71.84
2023-03-07T00:45:51.222Z,71.77
2023-03-07T00:46:53.171Z,71.68
2023-03-07T00:47:56.425Z,71.72
2023-03-07T00:48:58.548Z,71.35
2023-03-07T00:50:00.473Z,71.24
2023-03-07T00:51:02.531Z,71.18
2023-03-07T00:52:04.490Z,71.26
2023-03-07T00:53:06.321Z,71.45
2023-03-07T00:54:08.220Z,71.68
2023-03-07T00:55:10.282Z,72.14
2023-03-07T00:56:12.183Z,72.44
2023-03-07T00:57:13.989Z,72.56
2023-03-07T00:58:15.851Z,72.62
2023-03-07T00:59:17.745Z,72.71
2023-03-07T01:00:19.748Z,72.78
2023-03-07T01:01:24.104Z,73.02
2023-03-07T01:02:25.953Z,72.74
2023-03-07T01:03:28.300Z,73.03
2023-03-07T01:04:30.460Z,72.93
2023-03-07T01:05:32.291Z,73.43
2023-03-07T01:06:34.794Z,72.95
2023-03-07T01:07:36.718Z,72.89
2023-03-07T01:08:38.624Z,73.18
2023-03-07T01:09:40.433Z,73.38
2023-03-07T01:10:42.810Z,73.93
2023-03-07T01:11:44.746Z,74.56
2023-03-07T01:12:46.692Z,74.81
2023-03-07T01:13:48.532Z,74.77
2023-03-07T01:14:51.271Z,75.09
2023-03-07T01:15:53.114Z,75.04
2023-03-07T01:16:55.123Z,75.29
2023-03-07T01:17:57.232Z,75.65
2023-03-07T01:19:00.652Z,76.09
2023-03-07T01:20:05.870Z,76.20
2023-03-07T01:21:28.217Z,76.31
2023-03-07T01:22:31.584Z,76.81
2023-03-07T01:23:33.485Z,76.87
2023-03-07T01:24:35.287Z,76.93
2023-03-07T01:25:38.641Z,77.77
2023-03-07T01:26:40.607Z,77.81
2023-03-07T01:27:42.510Z,77.54
2023-03-07T01:28:44.392Z,77.80
2023-03-07T01:29:46.406Z,77.64
2023-03-07T01:30:56.937Z,77.78
2023-03-07T01:31:58.858Z,77.64
2023-03-07T01:33:01.597Z,77.77
2023-03-07T01:34:04.184Z,77.00
2023-03-07T01:35:06.207Z,77.35
2023-03-07T01:36:34.388Z,76.57
2023-03-07T01:37:36.231Z,76.85
2023-03-07T01:38:38.123Z,77.03
2023-03-07T01:39:40.022Z,77.21
2023-03-07T01:40:41.974Z,76.45
2023-03-07T01:41:44.581Z,76.67
2023-03-07T01:42:46.763Z,76.59
2023-03-07T01:43:48.735Z,76.42
2023-03-07T01:45:05.061Z,76.52
2023-03-07T01:46:19.273Z,76.58
2023-03-07T01:47:21.111Z,76.59
2023-03-07T01:48:22.983Z,76.26
2023-03-07T01:49:33.101Z,76.63
2023-03-07T01:50:35.021Z,77.20
2023-03-07T01:51:38.253Z,77.32
2023-03-07T01:52:41.863Z,77.45
2023-03-07T01:53:44.100Z,79.12
2023-03-07T01:54:49.400Z,79.37
2023-03-07T01:55:51.247Z,79.74
2023-03-07T01:56:53.722Z,79.90
2023-03-07T01:57:57.061Z,79.94
2023-03-07T01:58:58.954Z,79.77
2023-03-07T02:00:06.015Z,79.53
2023-03-07T02:01:10.106Z,79.15
2023-03-07T02:02:13.858Z,79.33
2023-03-07T02:03:15.675Z,79.13
2023-03-07T02:04:20.252Z,78.85
2023-03-07T02:05:26.029Z,78.80
2023-03-07T02:06:29.401Z,78.60
2023-03-07T02:07:33.929Z,78.94
2023-03-07T02:08:37.405Z,78.77
2023-03-07T02:09:39.469Z,79.07
2023-03-07T02:10:42.122Z,78.90
2023-03-07T02:11:45.169Z,78.85
2023-03-07T02:12:47.568Z,78.45
2023-03-07T02:13:49.909Z,78.49
2023-03-07T02:14:52.365Z,78.07
2023-03-07T02:15:54.461Z,77.93
2023-03-07T02:16:56.360Z,78.12
2023-03-07T02:18:01.380Z,78.10
2023-03-07T02:19:03.386Z,77.99
2023-03-07T02:20:08.060Z,78.33
2023-03-07T02:21:15.934Z,78.48
2023-03-07T02:22:19.173Z,78.62
2023-03-07T02:23:44.535Z,79.26
2023-03-07T02:25:08.300Z,79.13
2023-03-07T02:26:14.044Z,79.56
2023-03-07T02:27:16.076Z,79.52
2023-03-07T02:28:19.387Z,78.83
2023-03-07T02:29:21.450Z,79.04
2023-03-07T02:30:23.340Z,79.40
2023-03-07T02:31:25.584Z,79.29
2023-03-07T02:32:27.571Z,78.99
2023-03-07T02:33:29.969Z,78.80
2023-03-07T02:34:32.036Z,78.88
2023-03-07T02:35:33.930Z,79.13
2023-03-07T02:36:36.494Z,79.21
2023-03-07T02:37:39.156Z,78.63
2023-03-07T02:38:43.157Z,78.74
2023-03-07T02:39:46.098Z,78.46
2023-03-07T02:40:48.167Z,78.04
2023-03-07T02:41:51.340Z,78.37
2023-03-07T02:42:55.238Z,77.79
2023-03-07T02:43:57.156Z,77.21
2023-03-07T02:45:00.722Z,77.22
2023-03-07T02:46:02.650Z,77.10
2023-03-07T02:47:09.180Z,77.74
2023-03-07T02:48:11.189Z,77.53
2023-03-07T02:49:13.076Z,77.11
2023-03-07T02:50:15.470Z,77.29
2023-03-07T02:51:17.325Z,77.64
2023-03-07T02:52:19.731Z,77.29
2023-03-07T02:53:21.722Z,78.32
2023-03-07T02:54:23.914Z,78.01
2023-03-07T02:55:25.840Z,77.39
2023-03-07T02:56:27.765Z,77.17
2023-03-07T02:57:29.572Z,77.66
2023-03-07T02:58:31.535Z,77.95
2023-03-07T02:59:33.537Z,78.20
2023-03-07T03:00:35.377Z,77.54
2023-03-07T03:01:37.350Z,77.45
2023-03-07T03:02:39.287Z,78.20
2023-03-07T03:03:41.221Z,77.86
2023-03-07T03:04:43.199Z,78.40
2023-03-07T03:05:45.289Z,78.02
2023-03-07T03:06:47.140Z,77.99
2023-03-07T03:07:49.071Z,77.71
2023-03-07T03:08:51.062Z,77.72
2023-03-07T03:09:52.911Z,78.57
2023-03-07T03:10:55.255Z,77.49
2023-03-07T03:11:57.650Z,77.50
2023-03-07T03:12:59.544Z,77.96
2023-03-07T03:14:01.410Z,78.16
2023-03-07T03:15:03.451Z,78.79
2023-03-07T03:16:06.327Z,78.43
2023-03-07T03:17:08.279Z,78.86
2023-03-07T03:18:10.101Z,78.58
2023-03-07T03:19:12.087Z,77.79
2023-03-07T03:20:14.281Z,78.13
2023-03-07T03:21:16.210Z,78.36
2023-03-07T03:22:18.269Z,78.17
2023-03-07T03:23:20.165Z,78.19
2023-03-07T03:24:21.993Z,78.17
2023-03-07T03:25:25.474Z,77.98
2023-03-07T03:26:27.443Z,77.72
2023-03-07T03:27:32.021Z,77.47
2023-03-07T03:28:35.301Z,77.67
2023-03-07T03:29:37.440Z,77.44
2023-03-07T03:30:40.701Z,76.99
2023-03-07T03:31:42.583Z,76.79
2023-03-07T03:32:44.805Z,77.75
2023-03-07T03:33:46.667Z,77.94
2023-03-07T03:34:48.476Z,77.35
2023-03-07T03:35:51.027Z,78.06
2023-03-07T03:36:52.972Z,78.07
2023-03-07T03:37:54.969Z,78.63
2023-03-07T03:38:58.594Z,78.32
2023-03-07T03:40:00.610Z,78.16
2023-03-07T03:41:06.651Z,77.99
2023-03-07T03:42:09.075Z,78.84
2023-03-07T03:43:10.988Z,78.83
2023-03-07T03:44:12.911Z,78.76
2023-03-07T03:45:17.486Z,78.46
2023-03-07T03:46:20.058Z,78.62
2023-03-07T03:47:21.888Z,77.34
2023-03-07T03:48:24.246Z,77.12
2023-03-07T03:49:26.217Z,76.96
2023-03-07T03:50:28.145Z,76.77
2023-03-07T03:51:30.283Z,76.98
2023-03-07T03:52:32.155Z,76.77
2023-03-07T03:53:35.312Z,77.15
2023-03-07T03:54:37.139Z,77.06
2023-03-07T03:55:39.088Z,77.02
2023-03-07T03:56:40.956Z,76.70
2023-03-07T03:57:42.854Z,76.59
2023-03-07T03:58:47.016Z,75.75
2023-03-07T03:59:49.475Z,76.26
2023-03-07T04:00:51.325Z,75.35
2023-03-07T04:01:55.500Z,75.40
2023-03-07T04:02:57.534Z,75.01
2023-03-07T04:03:59.656Z,74.81
2023-03-07T04:05:01.551Z,74.89
2023-03-07T04:06:07.967Z,74.38
2023-03-07T04:07:09.869Z,74.54
2023-03-07T04:08:11.757Z,74.57
2023-03-07T04:09:13.632Z,74.86
2023-03-07T04:10:15.625Z,74.74
2023-03-07T04:11:17.564Z,74.58
2023-03-07T04:12:19.539Z,74.97
2023-03-07T04:13:21.433Z,74.66
2023-03-07T04:14:23.484Z,75.47
2023-03-07T04:15:25.520Z,75.54
2023-03-07T04:16:27.521Z,74.54
2023-03-07T04:17:29.354Z,74.47
2023-03-07T04:18:31.172Z,74.69
2023-03-07T04:19:33.541Z,75.33
2023-03-07T04:20:35.456Z,74.59
2023-03-07T04:21:37.417Z,75.01
2023-03-07T04:22:39.309Z,74.69
2023-03-07T04:23:41.192Z,75.95
2023-03-07T04:24:43.092Z,75.56
2023-03-07T04:25:49.026Z,76.20
2023-03-07T04:26:51.005Z,75.45
2023-03-07T04:27:52.865Z,75.09
2023-03-07T04:28:54.825Z,74.88
2023-03-07T04:29:57.278Z,74.80
2023-03-07T04:30:59.305Z,75.26
2023-03-07T04:32:01.399Z,75.68
2023-03-07T04:33:03.221Z,75.61
2023-03-07T04:34:05.166Z,74.97
2023-03-07T04:35:07.155Z,75.19
2023-03-07T04:36:09.642Z,74.94
2023-03-07T04:37:11.466Z,74.78
2023-03-07T04:38:13.794Z,74.91
2023-03-07T04:39:15.772Z,75.26
2023-03-07T04:40:17.661Z,75.75
2023-03-07T04:41:23.835Z,75.58
2023-03-07T04:42:25.734Z,75.49
2023-03-07T04:43:27.648Z,76.17
2023-03-07T04:44:29.585Z,76.73
2023-03-07T04:45:32.762Z,75.72
2023-03-07T04:46:34.721Z,76.42
2023-03-07T04:47:36.572Z,76.11
2023-03-07T04:48:38.389Z,75.65
2023-03-07T04:49:40.205Z,75.42
2023-03-07T04:50:42.055Z,75.06
2023-03-07T04:51:44.224Z,75.17
2023-03-07T04:52:46.312Z,75.11
2023-03-07T04:53:48.141Z,74.89
2023-03-07T04:54:50.069Z,74.98
2023-03-07T04:55:52.213Z,74.68
2023-03-07T04:56:54.152Z,74.64
2023-03-07T04:57:57.983Z,74.53
2023-03-07T04:58:59.885Z,74.86
2023-03-07T05:00:01.794Z,74.39
2023-03-07T05:01:05.109Z,74.25
2023-03-07T05:02:07.984Z,74.25
2023-03-07T05:03:10.490Z,74.52
2023-03-07T05:04:12.362Z,75.10
2023-03-07T05:05:14.287Z,75.25
2023-03-07T05:06:16.626Z,76.38
2023-03-07T05:07:18.584Z,76.16
2023-03-07T05:08:21.352Z,76.56
2023-03-07T05:09:23.166Z,77.23
2023-03-07T05:10:25.052Z,77.32
2023-03-07T05:11:26.954Z,77.82
2023-03-07T05:12:28.948Z,78.14
2023-03-07T05:13:31.434Z,78.20
2023-03-07T05:14:33.276Z,78.22
2023-03-07T05:15:35.822Z,77.98
2023-03-07T05:16:37.769Z,77.79
2023-03-07T05:17:39.675Z,77.86
2023-03-07T05:18:41.571Z,78.20
2023-03-07T05:19:43.443Z,77.29
2023-03-07T05:20:45.417Z,77.83
2023-03-07T05:21:49.369Z,77.83
2023-03-07T05:22:51.373Z,77.45
2023-03-07T05:23:53.197Z,78.29
2023-03-07T05:24:55.082Z,78.39
2023-03-07T05:25:57.040Z,78.10
2023-03-07T05:26:58.907Z,77.99
2023-03-07T05:28:00.812Z,77.89
2023-03-07T05:29:02.690Z,78.73
2023-03-07T05:30:06.182Z,77.62
2023-03-07T05:31:08.214Z,77.42
2023-03-07T05:32:11.363Z,77.85
2023-03-07T05:33:13.408Z,78.46
2023-03-07T05:34:16.349Z,78.53
2023-03-07T05:35:18.308Z,79.03
2023-03-07T05:36:20.246Z,79.17
2023-03-07T05:37:22.102Z,78.67
2023-03-07T05:38:24.006Z,78.46
2023-03-07T05:39:27.833Z,78.12
2023-03-07T05:40:29.911Z,78.09
2023-03-07T05:41:32.184Z,77.92
2023-03-07T05:42:34.130Z,77.81
2023-03-07T05:43:36.682Z,77.35
2023-03-07T05:44:38.609Z,77.34
2023-03-07T05:45:40.573Z,76.62
2023-03-07T05:46:42.444Z,76.54
2023-03-07T05:47:44.983Z,76.42
2023-03-07T05:48:47.429Z,76.31
2023-03-07T05:49:49.805Z,76.55
2023-03-07T05:50:51.764Z,76.80
2023-03-07T05:51:53.727Z,77.27
2023-03-07T05:52:55.589Z,77.47
2023-03-07T05:53:57.479Z,77.24
2023-03-07T05:54:59.348Z,77.23
2023-03-07T05:56:01.296Z,76.87
2023-03-07T05:57:03.193Z,76.62
2023-03-07T05:58:06.164Z,76.37
2023-03-07T05:59:08.246Z,76.27
2023-03-07T06:00:11.932Z,76.11
2023-03-07T06:01:13.829Z,76.65
2023-03-07T06:02:15.694Z,76.67
2023-03-07T06:03:17.584Z,77.21
2023-03-07T06:04:19.407Z,76.23
2023-03-07T06:05:21.215Z,76.99
2023-03-07T06:06:23.071Z,77.18
2023-03-07T06:07:25.067Z,77.26
2023-03-07T06:08:26.958Z,77.33
2023-03-07T06:09:28.873Z,77.07
2023-03-07T06:10:30.861Z,76.41
2023-03-07T06:11:33.048Z,76.63
2023-03-07T06:12:34.994Z,76.47
2023-03-07T06:13:36.985Z,76.88
2023-03-07T06:14:38.978Z,76.84
2023-03-07T06:15:40.978Z,76.90
2023-03-07T06:16:42.886Z,76.48
2023-03-07T06:17:44.901Z,76.26
2023-03-07T06:18:46.762Z,76.38
2023-03-07T06:19:48.657Z,76.30
2023-03-07T06:20:56.969Z,75.82
2023-03-07T06:21:58.856Z,76.35
2023-03-07T06:23:01.422Z,76.66
2023-03-07T06:24:03.495Z,76.04
2023-03-07T06:25:06.160Z,76.16
2023-03-07T06:26:08.744Z,75.95
2023-03-07T06:27:10.670Z,75.81
2023-03-07T06:28:12.628Z,76.38
2023-03-07T06:29:14.605Z,75.42
2023-03-07T06:30:16.619Z,75.76
2023-03-07T06:31:19.774Z,76.19
2023-03-07T06:32:21.793Z,75.97
2023-03-07T06:33:23.854Z,76.92
2023-03-07T06:34:25.914Z,76.98
2023-03-07T06:35:27.794Z,77.43
2023-03-07T06:36:29.792Z,76.70
2023-03-07T06:37:32.159Z,77.05
2023-03-07T06:38:34.061Z,76.83
2023-03-07T06:39:36.200Z,76.92
2023-03-07T06:40:38.510Z,76.48
2023-03-07T06:41:40.345Z,76.79
2023-03-07T06:42:42.212Z,76.50
2023-03-07T06:43:44.091Z,76.68
2023-03-07T06:44:46.038Z,77.05
2023-03-07T06:45:47.903Z,76.93
2023-03-07T06:46:49.831Z,76.46
2023-03-07T06:47:51.890Z,77.56
2023-03-07T06:48:55.469Z,77.67
2023-03-07T06:49:57.489Z,77.43
2023-03-07T06:50:59.388Z,77.47
2023-03-07T06:52:01.552Z,77.63
2023-03-07T06:53:03.538Z,78.18
2023-03-07T06:54:05.410Z,78.23
2023-03-07T06:55:07.703Z,77.73
2023-03-07T06:56:09.655Z,78.09
2023-03-07T06:57:11.508Z,78.71
2023-03-07T06:58:13.379Z,78.58
2023-03-07T06:59:15.362Z,78.82
2023-03-07T07:00:17.574Z,78.92
2023-03-07T07:01:20.641Z,78.77
2023-03-07T07:02:22.751Z,78.07
2023-03-07T07:03:25.192Z,78.61
2023-03-07T07:04:27.092Z,78.59
2023-03-07T07:05:29.045Z,78.49
2023-03-07T07:06:30.979Z,78.46
2023-03-07T07:07:32.911Z,77.91
2023-03-07T07:08:34.796Z,78.69
2023-03-07T07:09:36.740Z,78.47
2023-03-07T07:10:38.757Z,78.53
2023-03-07T07:11:40.756Z,78.52
2023-03-07T07:12:42.669Z,79.05
2023-03-07T07:13:46.192Z,78.89
2023-03-07T07:14:48.149Z,78.90
2023-03-07T07:15:50.047Z,78.29
2023-03-07T07:16:52.044Z,78.73
2023-03-07T07:17:54.020Z,77.84
2023-03-07T07:18:55.999Z,77.91
2023-03-07T07:19:57.958Z,78.14
2023-03-07T07:21:00.056Z,78.51
2023-03-07T07:22:01.934Z,78.25
2023-03-07T07:23:03.841Z,78.41
2023-03-07T07:24:05.872Z,78.34
2023-03-07T07:25:07.914Z,78.05
2023-03-07T07:26:10.125Z,77.64
2023-03-07T07:27:12.657Z,77.79
2023-03-07T07:28:14.555Z,77.81
2023-03-07T07:29:16.646Z,77.82
2023-03-07T07:30:18.597Z,77.70
2023-03-07T07:31:20.654Z,77.89
2023-03-07T07:32:22.814Z,77.90
2023-03-07T07:33:24.896Z,77.52
2023-03-07T07:34:27.208Z,77.49
2023-03-07T07:35:29.126Z,77.39
2023-03-07T07:36:31.089Z,77.90
2023-03-07T07:37:32.938Z,77.15
2023-03-07T07:38:35.587Z,77.28
2023-03-07T07:39:37.588Z,77.24
2023-03-07T07:40:39.617Z,77.49
2023-03-07T07:41:41.555Z,78.15
2023-03-07T07:42:43.829Z,77.51
2023-03-07T07:43:48.527Z,77.57
2023-03-07T07:44:50.377Z,77.62
2023-03-07T07:45:52.305Z,76.86
2023-03-07T07:46:54.388Z,76.54
2023-03-07T07:47:56.471Z,76.64
2023-03-07T07:48:58.366Z,76.17
2023-03-07T07:50:00.304Z,76.08
2023-03-07T07:51:03.136Z,76.15
2023-03-07T07:52:05.347Z,75.53
2023-03-07T07:53:07.241Z,75.55
2023-03-07T07:54:10.009Z,75.16
2023-03-07T07:55:14.508Z,75.42
2023-03-07T07:56:16.545Z,75.67
2023-03-07T07:57:18.488Z,75.51
2023-03-07T07:58:20.352Z,75.10
2023-03-07T07:59:22.273Z,75.20
2023-03-07T08:00:24.298Z,75.42
2023-03-07T08:01:26.222Z,75.53
2023-03-07T08:02:29.131Z,75.23
2023-03-07T08:03:32.756Z,74.79
2023-03-07T08:04:35.935Z,74.63
2023-03-07T08:05:38.029Z,74.20
2023-03-07T08:06:40.021Z,73.57
2023-03-07T08:07:41.878Z,73.40
2023-03-07T08:08:43.773Z,73.67
2023-03-07T08:09:45.595Z,73.75
2023-03-07T08:10:47.918Z,74.30
2023-03-07T08:11:49.968Z,73.41
2023-03-07T08:12:52.098Z,73.03
2023-03-07T08:13:54.019Z,73.23
2023-03-07T08:14:55.917Z,72.83
2023-03-07T08:15:57.849Z,72.60
2023-03-07T08:16:59.732Z,72.79
2023-03-07T08:18:01.574Z,71.99
2023-03-07T08:19:03.477Z,71.47
2023-03-07T08:20:10.099Z,71.34
2023-03-07T08:21:11.943Z,71.00
2023-03-07T08:22:13.884Z,70.74
2023-03-07T08:23:15.698Z,71.64
2023-03-07T08:24:17.608Z,70.93
2023-03-07T08:25:22.381Z,71.13
2023-03-07T08:26:24.900Z,70.51
2023-03-07T08:27:27.877Z,70.91
2023-03-07T08:28:29.773Z,70.50
2023-03-07T08:29:33.299Z,70.63
2023-03-07T08:30:36.050Z,70.73
2023-03-07T08:31:37.939Z,70.28
2023-03-07T08:32:39.809Z,69.85
2023-03-07T08:33:42.276Z,69.38
2023-03-07T08:34:44.113Z,69.06
2023-03-07T08:35:46.118Z,69.79
2023-03-07T08:36:47.996Z,69.30
2023-03-07T08:37:54.321Z,68.26
2023-03-07T08:38:56.186Z,68.40
2023-03-07T08:39:58.060Z,67.90
2023-03-07T08:41:04.681Z,68.29
2023-03-07T08:42:07.210Z,68.43
2023-03-07T08:43:09.157Z,68.26
2023-03-07T08:44:11.139Z,67.59
2023-03-07T08:45:13.256Z,66.66
2023-03-07T08:46:15.748Z,67.75
2023-03-07T08:47:17.812Z,67.35
2023-03-07T08:48:21.076Z,65.79
2023-03-07T08:49:22.973Z,66.26
2023-03-07T08:50:32.987Z,66.60
2023-03-07T08:51:35.278Z,67.54
2023-03-07T08:52:37.198Z,66.15
2023-03-07T08:53:39.475Z,66.52
2023-03-07T08:54:41.468Z,67.17
2023-03-07T08:55:46.254Z,65.73
2023-03-07T08:56:48.216Z,66.22
2023-03-07T08:57:50.153Z,66.66
2023-03-07T08:58:55.256Z,65.57
2023-03-07T08:59:57.058Z,65.85
2023-03-07T09:00:59.230Z,64.13
2023-03-07T09:02:01.201Z,65.75
2023-03-07T09:03:03.382Z,65.65
2023-03-07T09:04:05.526Z,65.52
2023-03-07T09:05:07.627Z,64.57
2023-03-07T09:06:15.623Z,65.19
2023-03-07T09:07:17.532Z,63.48
2023-03-07T09:08:19.488Z,62.87
2023-03-07T09:09:21.486Z,63.08
2023-03-07T09:10:23.437Z,63.03
2023-03-07T09:11:26.891Z,62.95
2023-03-07T09:12:28.766Z,62.85
2023-03-07T09:13:31.251Z,63.59
2023-03-07T09:14:33.941Z,62.86
2023-03-07T09:15:38.454Z,62.22
2023-03-07T09:16:40.418Z,60.17
2023-03-07T09:17:42.337Z,59.60
2023-03-07T09:18:44.183Z,60.61
2023-03-07T09:19:46.180Z,59.11
2023-03-07T09:20:48.047Z,59.24
2023-03-07T09:21:50.670Z,58.63
2023-03-07T09:22:54.496Z,58.41
2023-03-07T09:23:56.524Z,58.40
2023-03-07T09:24:58.446Z,58.27
2023-03-07T09:26:00.790Z,57.28
2023-03-07T09:27:02.714Z,58.26
2023-03-07T09:28:04.508Z,58.06
2023-03-07T09:29:06.351Z,57.70
2023-03-07T09:30:08.897Z,56.31
2023-03-07T09:31:11.912Z,56.93
2023-03-07T09:32:14.036Z,57.56
2023-03-07T09:33:16.050Z,56.86
2023-03-07T09:34:17.984Z,57.35
2023-03-07T09:35:19.897Z,56.56
2023-03-07T09:36:21.707Z,56.23
2023-03-07T09:37:23.594Z,56.93
2023-03-07T09:38:25.413Z,56.27
2023-03-07T09:39:27.467Z,56.92
2023-03-07T09:40:29.589Z,54.95
2023-03-07T09:41:34.167Z,54.13
2023-03-07T09:42:59.213Z,53.93
2023-03-07T09:44:18.378Z,55.08
2023-03-07T09:45:38.515Z,54.61
2023-03-07T09:46:40.643Z,53.41
2023-03-07T09:47:42.525Z,53.47
2023-03-07T09:48:48.174Z,53.80
2023-03-07T09:49:50.950Z,52.70
2023-03-07T09:50:55.519Z,53.75
2023-03-07T09:51:59.443Z,54.15
2023-03-07T09:53:03.474Z,52.47
2023-03-07T09:54:22.057Z,52.21
2023-03-07T09:55:25.406Z,52.06
2023-03-07T09:56:33.592Z,52.90
2023-03-07T09:57:54.087Z,52.42
2023-03-07T09:59:17.106Z,51.38
2023-03-07T10:00:23.663Z,52.30
2023-03-07T10:01:26.971Z,52.16
2023-03-07T10:02:33.134Z,50.99
2023-03-07T10:03:35.019Z,50.22
2023-03-07T10:04:47.281Z,51.95
2023-03-07T10:05:50.581Z,51.91
2023-03-07T10:06:57.971Z,53.12
2023-03-07T10:08:01.961Z,53.46
2023-03-07T10:09:05.780Z,52.21
2023-03-07T10:10:13.149Z,49.91
2023-03-07T10:11:33.510Z,49.39
2023-03-07T10:12:53.858Z,49.87
2023-03-07T10:14:01.666Z,50.12
2023-03-07T10:15:16.167Z,49.68
2023-03-07T10:16:24.943Z,48.34
2023-03-07T10:17:45.329Z,47.47
2023-03-07T10:19:00.364Z,48.92
2023-03-07T10:20:13.460Z,48.62
2023-03-07T10:21:18.071Z,49.07
2023-03-07T10:22:38.268Z,48.36
2023-03-07T10:23:41.508Z,48.89
2023-03-07T10:25:02.054Z,48.69
2023-03-07T10:26:03.959Z,44.89
2023-03-07T10:27:07.302Z,46.87
2023-03-07T10:28:11.902Z,45.84
2023-03-07T10:29:22.923Z,46.46
2023-03-07T10:30:24.941Z,45.37
2023-03-07T10:31:30.815Z,45.97
2023-03-07T10:32:35.510Z,47.44
2023-03-07T10:33:40.778Z,46.28
2023-03-07T10:34:42.595Z,45.73
2023-03-07T10:35:48.700Z,46.96
2023-03-07T10:37:06.496Z,45.52
2023-03-07T10:38:19.460Z,47.02
2023-03-07T10:39:37.808Z,46.63
2023-03-07T10:40:49.287Z,46.12
2023-03-07T10:41:51.411Z,46.23
2023-03-07T10:42:54.521Z,45.28
2023-03-07T10:43:57.201Z,45.73
2023-03-07T10:44:59.280Z,43.90
2023-03-07T10:46:23.709Z,43.26
2023-03-07T10:47:28.679Z,44.22
2023-03-07T10:48:31.906Z,44.50
2023-03-07T10:49:37.832Z,43.31
2023-03-07T10:50:51.633Z,42.62
2023-03-07T10:52:02.247Z,43.73
2023-03-07T10:53:09.757Z,46.03
2023-03-07T10:54:14.758Z,44.28
2023-03-07T10:55:32.007Z,43.89
2023-03-07T10:56:34.073Z,44.48
2023-03-07T10:57:36.022Z,46.17
2023-03-07T10:58:38.106Z,46.02
2023-03-07T10:59:43.918Z,45.70
2023-03-07T11:00:47.051Z,43.42
2023-03-07T11:01:55.688Z,43.42
2023-03-07T11:02:57.637Z,43.67
2023-03-07T11:04:20.408Z,45.78
2023-03-07T11:05:31.561Z,46.22
2023-03-07T11:06:51.396Z,46.98
2023-03-07T11:07:53.283Z,45.99
2023-03-07T11:08:56.560Z,46.95
2023-03-07T11:09:59.526Z,45.56
2023-03-07T11:11:02.495Z,46.24
2023-03-07T11:12:10.553Z,45.38
2023-03-07T11:13:16.733Z,45.29
2023-03-07T11:14:19.077Z,45.41
2023-03-07T11:15:24.492Z,45.32
2023-03-07T11:16:26.550Z,44.15
2023-03-07T11:17:39.604Z,45.57
2023-03-07T11:18:42.713Z,45.17
2023-03-07T11:19:46.232Z,44.68
2023-03-07T11:20:49.336Z,44.64
2023-03-07T11:21:55.215Z,43.30
2023-03-07T11:23:16.237Z,43.45
2023-03-07T11:24:25.237Z,44.40
2023-03-07T11:25:27.246Z,45.21
2023-03-07T11:26:31.222Z,45.74
2023-03-07T11:27:34.899Z,44.31
2023-03-07T11:28:36.757Z,44.30
2023-03-07T11:29:38.797Z,42.86
2023-03-07T11:30:47.389Z,43.88
2023-03-07T11:31:49.294Z,43.54
2023-03-07T11:32:51.162Z,43.83
2023-03-07T11:33:59.435Z,43.86
2023-03-07T11:35:07.101Z,44.95
2023-03-07T11:36:14.461Z,46.21
2023-03-07T11:37:19.312Z,46.49
2023-03-07T11:38:27.481Z,46.01
2023-03-07T11:39:34.672Z,46.12
2023-03-07T11:40:43.843Z,46.58
2023-03-07T11:41:52.864Z,46.78
2023-03-07T11:42:59.249Z,45.79
2023-03-07T11:44:01.199Z,45.83
2023-03-07T11:45:21.323Z,45.92
2023-03-07T11:46:34.319Z,46.17
2023-03-07T11:47:44.108Z,46.08
2023-03-07T11:49:04.770Z,46.53
2023-03-07T11:50:21.473Z,46.44
2023-03-07T11:51:33.471Z,45.92
2023-03-07T11:52:44.003Z,46.35
2023-03-07T11:53:51.878Z,45.99
2023-03-07T11:55:12.277Z,45.66
2023-03-07T11:56:29.744Z,44.74
2023-03-07T11:57:52.410Z,45.70
2023-03-07T11:59:06.231Z,45.42
2023-03-07T12:00:46.711Z,44.80
2023-03-07T12:01:55.776Z,44.72
2023-03-07T12:02:57.739Z,45.11
2023-03-07T12:04:01.605Z,45.80
2023-03-07T12:05:15.574Z,44.05
2023-03-07T12:06:35.947Z,44.62
2023-03-07T12:07:40.688Z,43.30
2023-03-07T12:08:45.426Z,44.13
2023-03-07T12:10:02.171Z,44.22
2023-03-07T12:11:04.023Z,42.67
2023-03-07T12:12:12.573Z,42.73
2023-03-07T12:13:35.054Z,43.52
2023-03-07T12:14:39.524Z,42.44
2023-03-07T12:16:00.041Z,44.11
2023-03-07T12:17:20.355Z,42.91
2023-03-07T12:18:22.194Z,43.31
2023-03-07T12:19:33.007Z,44.45
2023-03-07T12:20:53.660Z,45.30
2023-03-07T12:22:14.427Z,43.45
2023-03-07T12:23:39.454Z,44.99
2023-03-07T12:24:55.616Z,43.38
2023-03-07T12:25:59.654Z,42.88
2023-03-07T12:27:10.649Z,42.44
2023-03-07T12:28:22.730Z,41.42
2023-03-07T12:29:27.963Z,42.26
2023-03-07T12:30:35.670Z,41.56
2023-03-07T12:31:39.802Z,41.29
2023-03-07T12:32:41.889Z,41.09
2023-03-07T12:33:47.065Z,41.16
2023-03-07T12:34:52.020Z,41.84
2023-03-07T12:35:57.416Z,41.53
2023-03-07T12:37:04.143Z,41.77
2023-03-07T12:38:21.323Z,42.44
2023-03-07T12:39:23.777Z,41.75
2023-03-07T12:40:39.783Z,40.89
2023-03-07T12:41:46.701Z,40.74
2023-03-07T12:42:54.256Z,42.44
2023-03-07T12:43:58.582Z,41.28
2023-03-07T12:45:06.800Z,40.73
2023-03-07T12:46:18.521Z,39.75
2023-03-07T12:47:24.124Z,40.24
2023-03-07T12:48:41.339Z,39.88
2023-03-07T12:49:50.145Z,39.90
2023-03-07T12:50:56.632Z,39.55
2023-03-07T12:52:01.057Z,40.06
2023-03-07T12:53:11.763Z,40.53
2023-03-07T12:54:19.961Z,39.41
2023-03-07T12:55:27.035Z,39.22
2023-03-07T12:56:36.377Z,38.99
2023-03-07T12:57:43.863Z,39.71
2023-03-07T12:58:58.874Z,38.94
2023-03-07T13:00:04.423Z,40.39
2023-03-07T13:01:22.068Z,38.46
2023-03-07T13:02:27.650Z,38.83
2023-03-07T13:03:29.534Z,39.26
2023-03-07T13:04:35.854Z,37.98
2023-03-07T13:05:38.188Z,39.82
2023-03-07T13:06:41.933Z,38.34
2023-03-07T13:07:44.781Z,38.54
2023-03-07T13:08:48.115Z,38.53
2023-03-07T13:09:51.287Z,40.05
2023-03-07T13:10:53.292Z,40.21
2023-03-07T13:12:09.793Z,39.30
2023-03-07T13:13:34.602Z,38.61
2023-03-07T13:14:40.655Z,38.63
2023-03-07T13:15:47.006Z,38.08
2023-03-07T13:16:49.721Z,38.05
2023-03-07T13:17:51.659Z,40.85
2023-03-07T13:18:53.608Z,38.71
2023-03-07T13:19:56.413Z,39.99
2023-03-07T13:21:21.443Z,39.93
2023-03-07T13:22:23.343Z,38.84
2023-03-07T13:23:26.880Z,39.33
2023-03-07T13:24:35.639Z,40.50
2023-03-07T13:25:42.595Z,39.21
2023-03-07T13:26:45.249Z,39.90
2023-03-07T13:27:47.117Z,39.74
2023-03-07T13:28:51.641Z,39.67
2023-03-07T13:30:02.618Z,40.69
2023-03-07T13:31:16.540Z,40.17
2023-03-07T13:32:36.936Z,39.90
2023-03-07T13:33:38.881Z,39.92
2023-03-07T13:34:48.102Z,38.85
2023-03-07T13:36:12.723Z,40.29
2023-03-07T13:37:37.864Z,40.36
2023-03-07T13:38:46.915Z,39.24
2023-03-07T13:40:05.854Z,39.84
2023-03-07T13:41:09.828Z,40.24
2023-03-07T13:42:30.100Z,39.87
2023-03-07T13:43:35.478Z,39.18
2023-03-07T13:44:39.009Z,39.78
2023-03-07T13:45:40.904Z,39.31
2023-03-07T13:46:42.960Z,39.12
2023-03-07T13:47:45.702Z,38.96
2023-03-07T13:48:47.568Z,40.11
2023-03-07T13:49:49.509Z,39.02